Time;durP1;ratioP1;P1;durP2;ratioP2;P2;SDS_P1;SDS_P2;PMS_P1;PMS_P2;Temp;Humidity;BMP_temperature;BMP_pressure;BME280_temperature;BME280_humidity;BME280_pressure;Samples;Min_cycle;Max_cycle;Signal;HPM_P1;HPM_P2
2022/08/31 00:04:01;;;;;;;6.50;4.82;;;;;;;;;;5056027;28;19920;-80
2022/08/31 00:06:32;;;;;;;7.40;4.97;;;;;;;;;;5055832;28;20036;-81
2022/08/31 00:08:59;;;;;;;10.10;5.50;;;;;;;;;;5055027;28;20081;-81
2022/08/31 00:11:29;;;;;;;6.75;5.47;;;;;;;;;;5055528;28;20033;-81
2022/08/31 00:14:00;;;;;;;10.65;5.45;;;;;;;;;;5054726;28;20025;-80
2022/08/31 00:16:29;;;;;;;8.25;5.53;;;;;;;;;;5056434;28;20025;-81
2022/08/31 00:18:54;;;;;;;6.93;5.40;;;;;;;;;;5055581;28;20032;-81
2022/08/31 00:21:23;;;;;;;8.13;5.47;;;;;;;;;;5054641;28;20040;-81
2022/08/31 00:23:49;;;;;;;7.15;5.18;;;;;;;;;;5055325;28;20499;-81
2022/08/31 00:26:15;;;;;;;7.47;5.20;;;;;;;;;;5055555;28;20410;-81
2022/08/31 00:28:41;;;;;;;8.80;5.38;;;;;;;;;;5055049;28;20052;-81
2022/08/31 00:31:07;;;;;;;11.10;5.68;;;;;;;;;;5056701;28;20037;-81
2022/08/31 00:33:35;;;;;;;9.98;5.22;;;;;;;;;;5054658;28;20048;-81
2022/08/31 00:36:05;;;;;;;9.30;5.13;;;;;;;;;;5054029;28;20032;-81
2022/08/31 00:38:30;;;;;;;8.93;5.20;;;;;;;;;;5055770;28;20028;-81
2022/08/31 00:40:56;;;;;;;8.98;5.45;;;;;;;;;;5054551;28;20037;-80
2022/08/31 00:43:53;;;;;;;9.27;5.47;;;;;;;;;;5054549;28;20029;-81
2022/08/31 00:46:28;;;;;;;6.70;5.18;;;;;;;;;;5042838;28;20047;-81
2022/08/31 00:49:19;;;;;;;5.97;5.20;;;;;;;;;;5055626;28;20029;-80
2022/08/31 00:51:53;;;;;;;6.60;5.15;;;;;;;;;;5053457;28;20035;-81
2022/08/31 00:54:24;;;;;;;7.88;5.63;;;;;;;;;;5055472;28;20425;-81
2022/08/31 00:56:50;;;;;;;8.80;5.10;;;;;;;;;;5038256;28;20036;-81
2022/08/31 00:59:18;;;;;;;8.38;5.43;;;;;;;;;;5037560;28;20056;-81
2022/08/31 01:01:44;;;;;;;6.32;5.00;;;;;;;;;;5055967;28;20029;-81
2022/08/31 01:04:10;;;;;;;6.53;4.95;;;;;;;;;;5052708;28;20036;-81
2022/08/31 01:06:36;;;;;;;7.03;5.45;;;;;;;;;;5054080;28;20511;-80
2022/08/31 01:09:06;;;;;;;8.00;5.07;;;;;;;;;;5053904;28;20503;-80
2022/08/31 01:11:33;;;;;;;6.75;5.28;;;;;;;;;;5054899;28;20043;-81
2022/08/31 01:13:59;;;;;;;10.23;5.60;;;;;;;;;;5053862;28;20086;-80
2022/08/31 01:16:33;;;;;;;9.45;5.35;;;;;;;;;;5054392;28;20033;-81
2022/08/31 01:19:02;;;;;;;6.97;5.20;;;;;;;;;;5055501;28;20039;-81
2022/08/31 01:21:38;;;;;;;9.98;5.82;;;;;;;;;;5055291;28;20037;-81
2022/08/31 01:24:08;;;;;;;6.18;5.53;;;;;;;;;;5054708;28;20091;-81
2022/08/31 01:26:36;;;;;;;7.72;5.80;;;;;;;;;;5053512;28;20097;-80
2022/08/31 01:29:04;;;;;;;10.55;5.70;;;;;;;;;;5055293;28;20041;-80
2022/08/31 01:31:32;;;;;;;8.10;5.53;;;;;;;;;;5055042;28;20100;-80
2022/08/31 01:33:57;;;;;;;7.25;5.50;;;;;;;;;;5036716;28;20036;-80
2022/08/31 01:36:24;;;;;;;8.23;5.70;;;;;;;;;;5052791;28;20120;-80
2022/08/31 01:38:50;;;;;;;9.32;5.72;;;;;;;;;;5037070;28;20029;-81
2022/08/31 01:41:16;;;;;;;8.50;5.75;;;;;;;;;;5052580;28;20447;-81
2022/08/31 01:43:42;;;;;;;8.88;5.70;;;;;;;;;;5054798;28;20029;-81
2022/08/31 01:46:12;;;;;;;7.20;4.90;;;;;;;;;;5054315;28;20033;-81
2022/08/31 01:48:42;;;;;;;8.35;5.80;;;;;;;;;;5053070;28;20580;-81
2022/08/31 01:51:11;;;;;;;8.35;5.50;;;;;;;;;;5052640;28;20029;-81
2022/08/31 01:53:36;;;;;;;10.32;5.63;;;;;;;;;;5054392;28;20033;-81
2022/08/31 01:56:02;;;;;;;12.98;5.80;;;;;;;;;;5053749;28;20033;-80
2022/08/31 01:58:28;;;;;;;12.95;6.20;;;;;;;;;;5036851;28;20118;-81
2022/08/31 02:01:14;;;;;;;12.98;6.18;;;;;;;;;;5053213;28;20036;-81
2022/08/31 02:03:39;;;;;;;6.60;5.35;;;;;;;;;;5037104;28;20085;-81
2022/08/31 02:06:07;;;;;;;8.90;5.40;;;;;;;;;;5052869;28;20048;-81
2022/08/31 02:08:34;;;;;;;7.65;5.70;;;;;;;;;;5053326;28;20045;-81
2022/08/31 02:11:00;;;;;;;8.50;5.43;;;;;;;;;;5053112;28;20591;-81
2022/08/31 02:13:26;;;;;;;7.68;5.78;;;;;;;;;;5053642;28;20115;-81
2022/08/31 02:15:51;;;;;;;9.15;6.00;;;;;;;;;;5054454;28;20452;-81
2022/08/31 02:18:17;;;;;;;6.25;5.60;;;;;;;;;;5053354;28;20066;-81
2022/08/31 02:20:44;;;;;;;6.32;5.53;;;;;;;;;;5053053;28;20472;-81
2022/08/31 02:23:10;;;;;;;6.78;5.68;;;;;;;;;;5056695;28;20021;-81
2022/08/31 02:25:35;;;;;;;9.00;6.00;;;;;;;;;;5057990;28;20104;-81
2022/08/31 02:28:02;;;;;;;7.13;5.63;;;;;;;;;;5057202;28;20040;-81
2022/08/31 02:30:28;;;;;;;10.45;5.63;;;;;;;;;;5040631;28;20025;-81
2022/08/31 02:32:53;;;;;;;6.15;5.45;;;;;;;;;;5057454;28;20036;-81
2022/08/31 02:35:19;;;;;;;8.23;5.60;;;;;;;;;;5056829;28;20033;-79
2022/08/31 02:37:46;;;;;;;7.65;5.35;;;;;;;;;;5057931;28;20037;-81
2022/08/31 02:40:12;;;;;;;10.13;5.28;;;;;;;;;;5058623;28;20095;-80
2022/08/31 02:42:37;;;;;;;7.20;5.80;;;;;;;;;;5057076;28;20068;-80
2022/08/31 02:45:05;;;;;;;8.38;5.80;;;;;;;;;;5056425;28;20037;-80
2022/08/31 02:47:32;;;;;;;9.82;5.70;;;;;;;;;;5057129;28;20061;-80
2022/08/31 02:50:11;;;;;;;6.05;5.45;;;;;;;;;;5056720;28;20126;-81
2022/08/31 02:52:36;;;;;;;7.65;6.00;;;;;;;;;;5058255;28;20490;-81
2022/08/31 02:55:03;;;;;;;7.45;5.32;;;;;;;;;;5055915;28;20021;-80
2022/08/31 02:57:29;;;;;;;10.20;5.72;;;;;;;;;;5057098;28;20098;-80
2022/08/31 02:59:55;;;;;;;8.07;5.38;;;;;;;;;;5056668;28;20033;-81
2022/08/31 03:02:22;;;;;;;7.88;5.65;;;;;;;;;;5056560;28;20029;-81
2022/08/31 03:04:48;;;;;;;9.13;5.47;;;;;;;;;;5056129;28;20029;-80
2022/08/31 03:07:16;;;;;;;6.88;5.35;;;;;;;;;;5056146;28;20036;-80
2022/08/31 03:09:42;;;;;;;7.38;5.45;;;;;;;;;;5056289;28;20452;-80
2022/08/31 03:12:08;;;;;;;7.63;5.53;;;;;;;;;;5057547;28;20029;-81
2022/08/31 03:14:34;;;;;;;7.18;5.45;;;;;;;;;;5055445;28;20069;-81
2022/08/31 03:17:01;;;;;;;6.22;5.38;;;;;;;;;;5056823;28;20029;-81
2022/08/31 03:19:26;;;;;;;8.98;5.32;;;;;;;;;;5056190;28;20389;-81
2022/08/31 03:21:52;;;;;;;8.73;5.18;;;;;;;;;;5040940;28;20147;-80
2022/08/31 03:24:17;;;;;;;6.63;5.50;;;;;;;;;;5055797;28;20048;-80
2022/08/31 03:26:44;;;;;;;6.50;5.15;;;;;;;;;;5056159;28;20036;-80
2022/08/31 03:29:12;;;;;;;8.07;5.43;;;;;;;;;;5057038;28;20393;-81
2022/08/31 03:32:11;;;;;;;8.50;5.50;;;;;;;;;;5043585;28;20056;-81
2022/08/31 03:34:39;;;;;;;9.02;5.68;;;;;;;;;;5054111;28;20028;-81
2022/08/31 03:37:05;;;;;;;7.97;5.55;;;;;;;;;;5055014;28;20123;-80
2022/08/31 03:39:30;;;;;;;7.22;5.75;;;;;;;;;;5055742;28;20521;-81
2022/08/31 03:41:56;;;;;;;8.40;6.20;;;;;;;;;;5055516;28;20033;-81
2022/08/31 03:44:22;;;;;;;6.75;5.20;;;;;;;;;;5055486;28;20025;-81
2022/08/31 03:46:49;;;;;;;7.15;5.40;;;;;;;;;;5055171;28;20029;-81
2022/08/31 03:49:18;;;;;;;7.03;5.57;;;;;;;;;;5057647;28;20033;-80
2022/08/31 03:51:58;;;;;;;5.90;5.20;;;;;;;;;;5054979;28;20056;-80
2022/08/31 03:54:24;;;;;;;8.65;5.80;;;;;;;;;;5055409;28;20390;-80
2022/08/31 03:56:49;;;;;;;6.10;5.25;;;;;;;;;;5038560;28;20452;-81
2022/08/31 03:59:15;;;;;;;9.88;5.97;;;;;;;;;;5055194;28;20029;-80
2022/08/31 04:02:20;;;;;;;7.60;5.35;;;;;;;;;;5057312;28;20041;-80
2022/08/31 04:05:05;;;;;;;10.05;5.15;;;;;;;;;;5055777;28;20052;-81
2022/08/31 04:07:49;;;;;;;8.13;5.53;;;;;;;;;;5056871;28;20048;-81
2022/08/31 04:10:46;;;;;;;8.43;6.35;;;;;;;;;;5056162;28;20041;-80
2022/08/31 04:13:22;;;;;;;7.65;5.63;;;;;;;;;;5056323;28;20029;-80
2022/08/31 04:16:11;;;;;;;7.65;5.50;;;;;;;;;;5056090;28;20512;-80
2022/08/31 04:18:56;;;;;;;7.90;5.22;;;;;;;;;;5055852;28;20060;-81
2022/08/31 04:21:24;;;;;;;7.32;5.50;;;;;;;;;;5054905;28;20405;-81
2022/08/31 04:23:52;;;;;;;8.70;6.00;;;;;;;;;;5054656;28;20035;-80
2022/08/31 04:26:30;;;;;;;7.53;5.70;;;;;;;;;;5038198;28;20604;-80
2022/08/31 04:28:56;;;;;;;7.65;5.70;;;;;;;;;;5056572;28;20659;-80
2022/08/31 04:31:23;;;;;;;8.00;5.40;;;;;;;;;;5054678;28;20057;-81
2022/08/31 04:33:50;;;;;;;8.65;6.00;;;;;;;;;;5055194;28;20520;-81
2022/08/31 04:36:20;;;;;;;8.32;5.50;;;;;;;;;;5054898;28;20032;-81
2022/08/31 04:38:52;;;;;;;;;;;;;;;;;;5055558;28;20025;-80
2022/08/31 04:41:21;;;;;;;6.50;5.22;;;;;;;;;;5054782;28;19920;-80
2022/08/31 04:43:51;;;;;;;8.63;5.68;;;;;;;;;;5054899;28;20048;-80
2022/08/31 04:46:18;;;;;;;9.43;6.47;;;;;;;;;;5054606;28;20394;-80
2022/08/31 04:48:44;;;;;;;7.00;6.10;;;;;;;;;;5055396;28;20044;-81
2022/08/31 04:51:14;;;;;;;9.00;5.95;;;;;;;;;;5056481;28;20025;-81
2022/08/31 04:53:40;;;;;;;7.30;5.80;;;;;;;;;;5054204;28;20047;-81
2022/08/31 04:56:13;;;;;;;10.43;6.55;;;;;;;;;;5054441;28;20059;-81
2022/08/31 04:58:47;;;;;;;8.52;6.95;;;;;;;;;;5038657;28;20094;-81
2022/08/31 05:01:16;;;;;;;10.63;7.32;;;;;;;;;;5054654;28;20402;-81
2022/08/31 05:04:14;;;;;;;8.57;6.47;;;;;;;;;;5037324;28;20033;-81
2022/08/31 05:06:43;;;;;;;8.00;6.80;;;;;;;;;;5054497;28;20039;-81
2022/08/31 05:09:12;;;;;;;8.60;6.90;;;;;;;;;;5054230;28;20115;-81
2022/08/31 05:11:42;;;;;;;8.20;6.40;;;;;;;;;;5053769;28;20029;-81
2022/08/31 05:14:08;;;;;;;17.92;10.50;;;;;;;;;;5037152;28;20055;-81
2022/08/31 05:16:40;;;;;;;14.57;9.40;;;;;;;;;;5054087;28;20029;-81
2022/08/31 05:19:06;;;;;;;13.63;8.00;;;;;;;;;;5053856;28;20095;-81
2022/08/31 05:21:37;;;;;;;8.55;6.93;;;;;;;;;;5054840;28;20088;-80
2022/08/31 05:24:08;;;;;;;13.75;7.65;;;;;;;;;;5054743;28;20033;-80
2022/08/31 05:26:37;;;;;;;10.35;7.00;;;;;;;;;;5053642;28;20040;-81
2022/08/31 05:29:05;;;;;;;9.48;6.97;;;;;;;;;;5053306;28;20045;-81
2022/08/31 05:31:31;;;;;;;11.55;6.78;;;;;;;;;;5053344;28;20029;-81
2022/08/31 05:33:59;;;;;;;8.75;7.25;;;;;;;;;;5052963;28;20048;-80
2022/08/31 05:36:34;;;;;;;12.57;7.03;;;;;;;;;;5053852;28;20452;-81
2022/08/31 05:39:01;;;;;;;10.52;7.18;;;;;;;;;;5037097;28;20497;-81
2022/08/31 05:41:28;;;;;;;8.98;6.80;;;;;;;;;;5036902;28;20025;-81
2022/08/31 05:43:53;;;;;;;11.43;7.43;;;;;;;;;;5053397;28;20032;-81
2022/08/31 05:46:20;;;;;;;10.57;6.63;;;;;;;;;;5037642;28;20212;-81
2022/08/31 05:48:46;;;;;;;12.80;7.80;;;;;;;;;;5054543;28;20501;-81
2022/08/31 05:51:14;;;;;;;9.82;7.22;;;;;;;;;;5053214;28;20033;-81
2022/08/31 05:53:41;;;;;;;13.85;7.88;;;;;;;;;;5053745;28;20029;-81
2022/08/31 05:56:10;;;;;;;10.02;7.05;;;;;;;;;;5052850;28;20476;-81
2022/08/31 05:58:38;;;;;;;11.82;7.43;;;;;;;;;;5053185;28;20485;-81
2022/08/31 06:01:21;;;;;;;12.10;8.68;;;;;;;;;;5053603;28;20115;-81
2022/08/31 06:04:06;;;;;;;13.75;7.60;;;;;;;;;;5054261;28;20079;-80
2022/08/31 06:06:33;;;;;;;10.20;7.40;;;;;;;;;;5053327;28;20029;-80
2022/08/31 06:08:59;;;;;;;11.15;7.30;;;;;;;;;;5053405;28;20032;-80
2022/08/31 06:11:29;;;;;;;10.13;7.90;;;;;;;;;;5052716;28;20036;-80
2022/08/31 06:13:57;;;;;;;16.08;8.35;;;;;;;;;;5052974;28;20029;-80
2022/08/31 06:16:25;;;;;;;9.98;8.27;;;;;;;;;;5053224;28;20033;-80
2022/08/31 06:18:54;;;;;;;12.77;8.10;;;;;;;;;;5053383;28;20037;-80
2022/08/31 06:21:25;;;;;;;10.40;7.95;;;;;;;;;;5052666;28;20029;-81
2022/08/31 06:23:52;;;;;;;10.15;6.95;;;;;;;;;;5052656;28;20060;-80
2022/08/31 06:26:21;;;;;;;11.65;7.15;;;;;;;;;;5036417;28;20033;-80
2022/08/31 06:28:50;;;;;;;9.23;7.72;;;;;;;;;;5052516;28;20676;-80
2022/08/31 06:31:20;;;;;;;11.15;8.13;;;;;;;;;;5035832;28;20057;-80
2022/08/31 06:33:46;;;;;;;12.43;8.07;;;;;;;;;;5052682;28;20124;-80
2022/08/31 06:36:37;;;;;;;11.38;7.97;;;;;;;;;;5039390;28;20041;-80
2022/08/31 06:39:13;;;;;;;9.80;7.68;;;;;;;;;;5052614;28;20040;-80
2022/08/31 06:42:06;;;;;;;12.30;8.75;;;;;;;;;;5052411;28;20041;-80
2022/08/31 06:44:52;;;;;;;10.40;8.30;;;;;;;;;;5053254;28;20041;-81
2022/08/31 06:47:20;;;;;;;15.55;8.48;;;;;;;;;;5051916;28;20028;-81
2022/08/31 06:49:46;;;;;;;12.48;8.75;;;;;;;;;;5052482;28;20120;-80
2022/08/31 06:52:13;;;;;;;15.07;8.30;;;;;;;;;;5052755;28;20485;-81
2022/08/31 06:54:41;;;;;;;11.05;8.25;;;;;;;;;;5036053;28;20075;-81
2022/08/31 06:57:25;;;;;;;11.48;8.77;;;;;;;;;;5053599;28;20106;-80
2022/08/31 07:00:10;;;;;;;13.65;8.93;;;;;;;;;;5053697;28;20048;-80
2022/08/31 07:02:54;;;;;;;12.98;9.25;;;;;;;;;;5053892;28;20044;-81
2022/08/31 07:05:19;;;;;;;13.65;9.02;;;;;;;;;;5053278;28;20029;-81
2022/08/31 07:07:45;;;;;;;11.05;7.95;;;;;;;;;;5053085;28;20037;-81
2022/08/31 07:10:11;;;;;;;12.75;8.18;;;;;;;;;;5055547;28;20048;-81
2022/08/31 07:12:36;;;;;;;12.07;8.45;;;;;;;;;;5056407;28;20036;-81
2022/08/31 07:15:03;;;;;;;10.45;7.90;;;;;;;;;;5055752;28;20031;-81
2022/08/31 07:17:31;;;;;;;14.68;8.55;;;;;;;;;;5055998;28;20029;-81
2022/08/31 07:19:57;;;;;;;12.90;8.48;;;;;;;;;;5038919;28;20472;-81
2022/08/31 07:22:24;;;;;;;13.25;9.23;;;;;;;;;;5055913;28;20049;-87
2022/08/31 07:24:57;;;;;;;12.52;8.40;;;;;;;;;;5056368;28;20063;-85
2022/08/31 07:27:23;;;;;;;10.00;7.80;;;;;;;;;;5059139;28;20444;-84
2022/08/31 07:29:53;;;;;;;12.68;9.13;;;;;;;;;;5039385;28;20045;-88
2022/08/31 07:32:19;;;;;;;11.60;8.02;;;;;;;;;;5056007;28;20021;-84
2022/08/31 07:34:48;;;;;;;11.85;9.32;;;;;;;;;;5055595;28;20119;-85
2022/08/31 07:42:55;;;;;;;13.95;8.52;;;;;;;;;;5055125;28;20067;-84
2022/08/31 07:45:23;;;;;;;12.57;7.97;;;;;;;;;;5055050;28;20032;-80
2022/08/31 07:47:53;;;;;;;11.05;7.75;;;;;;;;;;5055087;28;20040;-81
2022/08/31 07:50:22;;;;;;;10.95;8.20;;;;;;;;;;5039031;28;20087;-84
2022/08/31 07:53:10;;;;;;;12.73;8.30;;;;;;;;;;5056684;28;20128;-84
2022/08/31 07:55:46;;;;;;;10.82;8.13;;;;;;;;;;5040058;28;20120;-84
2022/08/31 07:58:29;;;;;;;10.68;8.43;;;;;;;;;;5056662;28;20032;-85
2022/08/31 08:00:56;;;;;;;10.55;8.23;;;;;;;;;;5055459;28;20040;-84
2022/08/31 08:03:21;;;;;;;12.25;8.23;;;;;;;;;;5055868;28;20033;-84
2022/08/31 08:06:08;;;;;;;12.02;8.60;;;;;;;;;;5056453;28;20412;-85
2022/08/31 08:08:58;;;;;;;11.23;9.50;;;;;;;;;;5055257;28;20037;-85
2022/08/31 08:11:45;;;;;;;11.60;9.32;;;;;;;;;;5055013;28;20513;-82
2022/08/31 08:14:18;;;;;;;11.80;9.32;;;;;;;;;;5054234;28;20040;-81
2022/08/31 08:17:09;;;;;;;11.20;8.82;;;;;;;;;;5052614;28;20040;-81
2022/08/31 08:19:43;;;;;;;11.70;9.05;;;;;;;;;;5053771;28;20033;-81
2022/08/31 08:22:09;;;;;;;13.15;9.80;;;;;;;;;;5037821;28;20040;-81
2022/08/31 08:25:07;;;;;;;13.70;9.38;;;;;;;;;;5054954;28;20036;-82
2022/08/31 08:27:52;;;;;;;13.38;9.60;;;;;;;;;;5053963;28;20032;-80
2022/08/31 08:30:28;;;;;;;12.93;9.13;;;;;;;;;;5055008;28;20037;-81
2022/08/31 08:32:54;;;;;;;12.75;8.88;;;;;;;;;;5054653;28;20048;-80
2022/08/31 08:35:20;;;;;;;13.07;9.57;;;;;;;;;;5053958;28;20029;-80
2022/08/31 08:37:46;;;;;;;11.38;8.77;;;;;;;;;;5053863;28;20076;-82
2022/08/31 08:40:35;;;;;;;9.27;7.82;;;;;;;;;;5037816;28;20456;-81
2022/08/31 08:43:03;;;;;;;14.25;9.18;;;;;;;;;;5054391;28;20044;-81
2022/08/31 08:45:31;;;;;;;14.82;8.90;;;;;;;;;;5053435;28;20035;-80
2022/08/31 08:47:57;;;;;;;14.43;9.75;;;;;;;;;;5053626;28;20033;-81
2022/08/31 08:50:27;;;;;;;13.68;9.68;;;;;;;;;;5053725;28;20025;-81
2022/08/31 08:52:56;;;;;;;13.77;10.02;;;;;;;;;;5036977;28;20031;-81
2022/08/31 08:55:33;;;;;;;14.90;9.48;;;;;;;;;;5053583;28;20040;-81
2022/08/31 08:57:59;;;;;;;16.45;10.48;;;;;;;;;;5053972;28;20037;-81
2022/08/31 09:00:27;;;;;;;12.80;9.85;;;;;;;;;;5052972;28;20082;-82
2022/08/31 09:03:02;;;;;;;15.57;10.93;;;;;;;;;;5055476;28;20037;-85
2022/08/31 09:06:15;;;;;;;15.15;9.55;;;;;;;;;;5040361;28;20124;-82
2022/08/31 09:09:09;;;;;;;18.02;10.18;;;;;;;;;;5053782;28;20037;-83
2022/08/31 09:12:23;;;;;;;12.88;9.45;;;;;;;;;;5054729;28;20441;-82
2022/08/31 09:15:06;;;;;;;17.38;10.25;;;;;;;;;;5036848;28;20397;-82
2022/08/31 09:17:48;;;;;;;14.68;9.70;;;;;;;;;;5037242;28;20116;-82
2022/08/31 09:20:15;;;;;;;16.60;10.95;;;;;;;;;;5053613;28;20060;-82
2022/08/31 09:22:49;;;;;;;12.70;9.50;;;;;;;;;;5054506;28;20036;-83
2022/08/31 09:25:27;;;;;;;13.70;10.02;;;;;;;;;;5053548;28;20346;-82
2022/08/31 09:28:06;;;;;;;15.45;10.20;;;;;;;;;;5053636;28;20032;-82
2022/08/31 09:30:44;;;;;;;16.63;9.65;;;;;;;;;;5054376;28;20052;-82
2022/08/31 09:33:15;;;;;;;14.93;10.70;;;;;;;;;;5052499;28;20091;-82
2022/08/31 09:35:41;;;;;;;13.65;10.02;;;;;;;;;;5054488;28;20041;-83
2022/08/31 09:38:24;;;;;;;13.38;10.23;;;;;;;;;;5054710;28;20068;-82
2022/08/31 09:40:51;;;;;;;14.95;10.48;;;;;;;;;;5053294;28;20037;-82
2022/08/31 09:43:24;;;;;;;12.52;9.95;;;;;;;;;;5054374;28;20029;-83
2022/08/31 09:45:55;;;;;;;15.80;10.82;;;;;;;;;;5054136;28;20032;-82
2022/08/31 09:49:01;;;;;;;16.20;10.20;;;;;;;;;;5054697;28;20032;-82
2022/08/31 09:51:33;;;;;;;15.20;10.85;;;;;;;;;;5032115;28;20124;-83
2022/08/31 09:57:00;;;;;;;14.38;10.90;;;;;;;;;;5054512;28;20480;-84
2022/08/31 09:59:28;;;;;;;14.10;10.50;;;;;;;;;;5054167;28;20051;-83
2022/08/31 10:01:54;;;;;;;13.00;9.93;;;;;;;;;;5054382;28;20041;-85
2022/08/31 10:04:25;;;;;;;16.27;10.73;;;;;;;;;;5054401;28;20040;-83
2022/08/31 10:07:12;;;;;;;13.45;10.07;;;;;;;;;;5054463;28;20128;-83
2022/08/31 10:09:45;;;;;;;15.25;10.32;;;;;;;;;;5054309;28;20067;-83
2022/08/31 10:12:21;;;;;;;14.25;10.68;;;;;;;;;;5052908;28;20052;-83
2022/08/31 10:14:56;;;;;;;15.68;11.23;;;;;;;;;;5054299;28;20101;-83
2022/08/31 10:17:45;;;;;;;17.20;11.25;;;;;;;;;;5054482;28;20498;-82
2022/08/31 10:20:18;;;;;;;28.85;11.50;;;;;;;;;;5052625;28;20033;-83
2022/08/31 10:22:56;;;;;;;19.43;11.63;;;;;;;;;;5052660;28;20086;-83
2022/08/31 10:25:40;;;;;;;22.27;11.95;;;;;;;;;;5053810;28;20033;-83
2022/08/31 10:28:13;;;;;;;26.17;12.18;;;;;;;;;;5054010;28;20040;-82
2022/08/31 10:31:01;;;;;;;18.70;11.98;;;;;;;;;;5054197;28;20041;-83
2022/08/31 10:36:35;;;;;;;17.60;10.77;;;;;;;;;;5054430;28;20094;-83
2022/08/31 10:39:00;;;;;;;11.10;6.45;;;;;;;;;;5053987;28;20111;-82
2022/08/31 10:41:34;;;;;;;12.10;8.77;;;;;;;;;;5053904;28;20454;-84
2022/08/31 10:44:22;;;;;;;9.65;8.20;;;;;;;;;;5056351;28;20057;-83
2022/08/31 10:46:57;;;;;;;13.98;9.25;;;;;;;;;;5057997;28;20043;-83
2022/08/31 10:49:24;;;;;;;11.23;8.15;;;;;;;;;;5057843;28;20037;-84
2022/08/31 10:52:16;;;;;;;13.65;9.00;;;;;;;;;;5058016;28;20037;-84
2022/08/31 10:54:55;;;;;;;12.43;8.88;;;;;;;;;;5057235;28;20067;-83
2022/08/31 10:57:55;;;;;;;15.27;9.13;;;;;;;;;;5057924;28;20120;-83
2022/08/31 11:03:21;;;;;;;12.95;8.98;;;;;;;;;;5057384;28;20124;-82
2022/08/31 11:06:05;;;;;;;13.55;11.02;;;;;;;;;;5057225;28;20036;-83
2022/08/31 11:08:56;;;;;;;13.55;10.70;;;;;;;;;;5055128;28;20029;-83
2022/08/31 11:11:41;;;;;;;16.65;11.65;;;;;;;;;;5054360;28;20413;-82
2022/08/31 11:14:32;;;;;;;14.48;10.77;;;;;;;;;;5056180;28;20516;-83
2022/08/31 11:17:19;;;;;;;13.85;10.68;;;;;;;;;;5057440;28;20033;-87
2022/08/31 11:19:49;;;;;;;17.45;10.38;;;;;;;;;;5056102;28;20420;-84
2022/08/31 11:22:36;;;;;;;15.07;10.20;;;;;;;;;;5056517;28;20029;-84
2022/08/31 11:25:23;;;;;;;15.85;10.95;;;;;;;;;;5053969;28;20124;-84
2022/08/31 11:28:34;;;;;;;13.68;10.43;;;;;;;;;;5055393;28;20029;-84
2022/08/31 11:31:07;;;;;;;17.67;10.85;;;;;;;;;;5051716;28;20037;-83
2022/08/31 11:33:33;;;;;;;14.30;9.82;;;;;;;;;;5056626;28;20112;-84
2022/08/31 11:36:10;;;;;;;12.40;9.60;;;;;;;;;;5056746;28;20051;-84
2022/08/31 11:38:39;;;;;;;13.23;9.43;;;;;;;;;;5055570;28;20044;-84
2022/08/31 11:41:04;;;;;;;12.30;9.73;;;;;;;;;;5055711;28;20039;-84
2022/08/31 11:43:30;;;;;;;16.20;10.20;;;;;;;;;;5056804;28;20120;-84
2022/08/31 11:46:00;;;;;;;12.40;9.77;;;;;;;;;;5055346;28;20550;-84
2022/08/31 11:48:50;;;;;;;14.52;10.50;;;;;;;;;;5056987;28;20044;-84
2022/08/31 11:51:31;;;;;;;15.18;10.55;;;;;;;;;;5055230;28;20067;-83
2022/08/31 11:54:03;;;;;;;14.30;10.85;;;;;;;;;;5055952;28;20060;-83
2022/08/31 11:56:35;;;;;;;13.40;10.52;;;;;;;;;;5055226;28;20029;-84
2022/08/31 11:59:25;;;;;;;16.77;10.90;;;;;;;;;;5055484;28;20529;-83
2022/08/31 12:01:55;;;;;;;18.73;11.60;;;;;;;;;;5056347;28;20029;-83
2022/08/31 12:04:44;;;;;;;15.23;10.88;;;;;;;;;;5056049;28;20653;-85
2022/08/31 12:07:15;;;;;;;14.77;10.88;;;;;;;;;;5057971;28;20442;-84
2022/08/31 12:10:06;;;;;;;13.60;10.10;;;;;;;;;;5054661;28;20029;-83
2022/08/31 12:13:08;;;;;;;13.18;9.93;;;;;;;;;;5056326;28;20031;-83
2022/08/31 12:16:01;;;;;;;13.75;10.02;;;;;;;;;;5056183;28;20063;-84
2022/08/31 12:18:45;;;;;;;14.07;10.43;;;;;;;;;;5056063;28;20029;-84
2022/08/31 12:24:31;;;;;;;13.10;10.45;;;;;;;;;;5054854;28;20490;-84
2022/08/31 12:27:14;;;;;;;15.57;9.30;;;;;;;;;;5056725;28;20047;-84
2022/08/31 12:29:41;;;;;;;9.88;7.30;;;;;;;;;;5055397;28;20039;-83
2022/08/31 12:32:19;;;;;;;10.50;7.20;;;;;;;;;;5054605;28;20057;-83
2022/08/31 12:34:50;;;;;;;10.52;7.40;;;;;;;;;;5053925;28;20064;-83
2022/08/31 12:37:37;;;;;;;10.00;7.68;;;;;;;;;;5055479;28;20033;-83
2022/08/31 12:40:06;;;;;;;11.60;7.95;;;;;;;;;;5054378;28;20072;-84
2022/08/31 12:42:35;;;;;;;13.43;7.97;;;;;;;;;;5055817;28;20033;-82
2022/08/31 12:45:03;;;;;;;10.02;7.85;;;;;;;;;;5055189;28;20102;-83
2022/08/31 12:47:57;;;;;;;12.52;7.65;;;;;;;;;;5055992;28;20041;-83
2022/08/31 12:50:36;;;;;;;10.48;7.70;;;;;;;;;;5055797;28;20519;-85
2022/08/31 12:53:24;;;;;;;12.30;7.60;;;;;;;;;;5055712;28;20056;-82
2022/08/31 12:56:03;;;;;;;9.70;7.78;;;;;;;;;;5055910;28;20504;-83
2022/08/31 12:58:55;;;;;;;13.55;8.30;;;;;;;;;;5054123;28;20086;-83
2022/08/31 13:01:24;;;;;;;13.07;8.27;;;;;;;;;;5054345;28;20060;-84
2022/08/31 13:03:53;;;;;;;9.93;7.18;;;;;;;;;;5054979;28;20635;-83
2022/08/31 13:06:26;;;;;;;12.35;8.00;;;;;;;;;;5052864;28;20033;-83
2022/08/31 13:08:54;;;;;;;13.02;8.45;;;;;;;;;;5054795;28;20122;-83
2022/08/31 13:11:31;;;;;;;11.05;7.70;;;;;;;;;;5054380;28;20112;-84
2022/08/31 13:14:14;;;;;;;9.48;7.75;;;;;;;;;;5055366;28;20037;-83
2022/08/31 13:16:49;;;;;;;10.35;8.35;;;;;;;;;;5055184;28;20119;-83
2022/08/31 13:19:29;;;;;;;10.27;7.15;;;;;;;;;;5055819;28;20033;-86
2022/08/31 13:22:07;;;;;;;10.38;7.63;;;;;;;;;;5054896;28;20048;-85
2022/08/31 13:24:40;;;;;;;8.75;7.30;;;;;;;;;;5053153;28;20124;-83
2022/08/31 13:27:11;;;;;;;10.55;7.18;;;;;;;;;;5055127;28;20040;-84
2022/08/31 13:29:42;;;;;;;10.73;7.93;;;;;;;;;;5054724;28;20036;-84
2022/08/31 13:32:09;;;;;;;13.57;7.57;;;;;;;;;;5055072;28;20033;-84
2022/08/31 13:34:40;;;;;;;8.90;7.60;;;;;;;;;;5054787;28;20020;-84
2022/08/31 13:37:11;;;;;;;10.25;6.90;;;;;;;;;;5055121;28;20028;-84
2022/08/31 13:39:43;;;;;;;10.30;7.45;;;;;;;;;;5054427;28;20395;-83
2022/08/31 13:42:41;;;;;;;9.27;6.80;;;;;;;;;;5054576;28;20508;-85
2022/08/31 13:45:23;;;;;;;9.85;7.15;;;;;;;;;;5052889;28;20060;-84
2022/08/31 13:48:08;;;;;;;8.77;7.47;;;;;;;;;;5054571;28;20033;-84
2022/08/31 13:50:46;;;;;;;8.52;7.18;;;;;;;;;;5053026;28;20055;-85
2022/08/31 13:53:38;;;;;;;9.75;7.35;;;;;;;;;;5053026;28;20029;-85
2022/08/31 13:59:15;;;;;;;9.77;6.75;;;;;;;;;;5054408;28;20052;-84
2022/08/31 14:01:46;;;;;;;7.25;6.18;;;;;;;;;;5054307;28;20037;-84
2022/08/31 14:04:47;;;;;;;7.95;6.60;;;;;;;;;;5054506;28;20045;-84
2022/08/31 14:07:23;;;;;;;9.70;6.88;;;;;;;;;;5054393;28;20040;-83
2022/08/31 14:10:35;;;;;;;8.55;6.90;;;;;;;;;;5052862;28;20044;-83
2022/08/31 14:13:08;;;;;;;9.23;6.60;;;;;;;;;;5052437;28;20059;-84
2022/08/31 14:15:39;;;;;;;7.22;6.10;;;;;;;;;;5052464;28;20040;-83
2022/08/31 14:18:27;;;;;;;8.73;6.93;;;;;;;;;;5054897;28;20087;-85
2022/08/31 14:21:05;;;;;;;8.02;6.07;;;;;;;;;;5057771;28;20438;-83
2022/08/31 14:23:35;;;;;;;9.43;6.72;;;;;;;;;;5057949;28;20032;-84
2022/08/31 14:26:08;;;;;;;8.23;6.40;;;;;;;;;;5056244;28;20041;-84
2022/08/31 14:28:41;;;;;;;8.50;7.20;;;;;;;;;;5057923;28;20100;-84
2022/08/31 14:31:32;;;;;;;10.93;6.13;;;;;;;;;;5057825;28;20120;-84
2022/08/31 14:34:22;;;;;;;7.82;6.53;;;;;;;;;;5057097;28;20057;-84
2022/08/31 14:36:52;;;;;;;8.82;6.28;;;;;;;;;;5057865;28;20508;-84
2022/08/31 14:39:26;;;;;;;8.18;6.50;;;;;;;;;;5059430;28;20036;-83
2022/08/31 14:41:54;;;;;;;7.70;6.43;;;;;;;;;;5056202;28;20049;-83
2022/08/31 14:44:23;;;;;;;10.27;6.55;;;;;;;;;;5057401;28;20036;-84
2022/08/31 14:46:49;;;;;;;10.02;6.80;;;;;;;;;;5057927;28;20051;-84
2022/08/31 14:49:15;;;;;;;9.70;7.38;;;;;;;;;;5057397;28;20494;-83
2022/08/31 14:51:42;;;;;;;9.63;7.25;;;;;;;;;;5057464;28;20482;-85
2022/08/31 14:54:09;;;;;;;9.27;7.03;;;;;;;;;;5057498;28;20102;-84
2022/08/31 14:56:43;;;;;;;8.07;6.35;;;;;;;;;;5056525;28;20295;-84
2022/08/31 14:59:11;;;;;;;9.35;7.55;;;;;;;;;;5058327;28;20032;-85
2022/08/31 15:01:38;;;;;;;9.82;7.63;;;;;;;;;;5058366;28;20588;-85
2022/08/31 15:04:04;;;;;;;9.35;7.00;;;;;;;;;;5057996;28;20041;-84
2022/08/31 15:06:33;;;;;;;10.40;7.40;;;;;;;;;;5058080;28;20044;-84
2022/08/31 15:09:03;;;;;;;10.77;7.50;;;;;;;;;;5058638;28;20052;-84
2022/08/31 15:11:34;;;;;;;9.73;7.28;;;;;;;;;;5058204;28;20070;-84
2022/08/31 15:14:11;;;;;;;8.73;7.03;;;;;;;;;;5058345;28;20105;-84
2022/08/31 15:16:47;;;;;;;9.20;6.85;;;;;;;;;;5057801;28;20033;-84
2022/08/31 15:19:13;;;;;;;9.27;7.47;;;;;;;;;;5057666;28;20111;-84
2022/08/31 15:21:42;;;;;;;8.02;6.82;;;;;;;;;;5058735;28;20056;-84
2022/08/31 15:24:09;;;;;;;9.43;7.05;;;;;;;;;;5057654;28;20115;-85
2022/08/31 15:26:35;;;;;;;8.02;7.13;;;;;;;;;;5057913;28;20044;-85
2022/08/31 15:29:01;;;;;;;8.73;6.80;;;;;;;;;;5057847;28;20039;-85
2022/08/31 15:31:27;;;;;;;8.07;6.55;;;;;;;;;;5057420;28;20402;-84
2022/08/31 15:33:58;;;;;;;8.77;6.47;;;;;;;;;;5056644;28;20025;-85